Flight Track Log - Related Links

Times and Time Zones

All times are in EDT time to prevent confusion due to time zone crossing. See the N21921 flight status page for this flight to view local times or setup timezone preferences in your user account.

Time Position Orientation Groundspeed Altitude Reporting Facility
EDT Latitude Longitude Course Direction KTS MPH feet Rate Location/Type
Tue 04:28:06 PM 39.7131 -83.9347 57° Northeast 113 130 2,400  Level Indianapolis Center
Tue 04:28:31 PM 39.7231 -83.9144 57° Northeast 147 169 2,700 988 Climbing Indianapolis Center
Tue 04:29:31 PM 39.7469 -83.8739 53° Northeast 150 173 3,800 970 Climbing Indianapolis Center
Tue 04:30:10 PM 39.7589 -83.8483 59° Northeast 139 160 4,300 984 Climbing Indianapolis Center
Tue 04:30:32 PM 39.7689 -83.8333 49° Northeast 134 154 4,800 1,065 Climbing Indianapolis Center
Tue 04:31:12 PM 39.7814 -83.8083 57° Northeast 138 159 5,400 984 Climbing Indianapolis Center
Tue 04:31:33 PM 39.7889 -83.7925 58° Northeast 136 157 5,800 871 Climbing Indianapolis Center
Tue 04:32:14 PM 39.8039 -83.7656 54° Northeast 138 159 6,300 984 Climbing Indianapolis Center
Tue 04:32:34 PM 39.8131 -83.7494 53° Northeast 140 161 6,800 871 Climbing Indianapolis Center
Tue 04:33:16 PM 39.8261 -83.7250 55° Northeast 138 159 7,200 985 Climbing Indianapolis Center
Tue 04:33:41 PM 39.8372 -83.7061 53° Northeast 136 157 7,900 1,065 Climbing Indianapolis Center
Tue 04:34:18 PM 39.8489 -83.6844 55° Northeast 137 158 8,300 885 Climbing Indianapolis Center
Tue 04:34:42 PM 39.8611 -83.6656 50° Northeast 136 157 8,800 774 Climbing Indianapolis Center
Tue 04:35:20 PM 39.8722 -83.6431 57° Northeast 139 160 9,100 295 Climbing Indianapolis Center
Tue 04:35:43 PM 39.8878 -83.6172 52° Northeast 157 181 9,100 -97 Level Indianapolis Center
Tue 04:36:22 PM 39.9047 -83.5833 57° Northeast 171 197 9,000 -109 Descending Indianapolis Center
Tue 04:36:38 PM 39.9144 -83.5689 49° Northeast 189 217 9,000  Level Indianapolis Center
Tue 04:37:24 PM 39.9361 -83.5275 56° Northeast 184 212 9,000  Level Indianapolis Center
Tue 04:37:45 PM 39.9458 -83.5103 54° Northeast 187 215 9,000  Level Indianapolis Center
Tue 04:38:26 PM 39.9667 -83.4706 56° Northeast 188 216 9,000  Level Indianapolis Center
Tue 04:39:29 PM 39.9983 -83.4136 54° Northeast 191 220 9,000  Level Indianapolis Center
Tue 04:40:31 PM 40.0292 -83.3575 54° Northeast 187 215 9,000  Level Indianapolis Center
Tue 04:41:33 PM 40.0589 -83.3017 55° Northeast 186 214 9,000  Level Indianapolis Center
Tue 04:42:35 PM 40.0886 -83.2461 55° Northeast 185 213 9,000  Level Indianapolis Center
Tue 04:42:50 PM 40.0981 -83.2264 58° Northeast 187 215 9,000  Level Indianapolis Center
Tue 04:43:37 PM 40.1186 -83.1892 54° Northeast 186 214 9,000  Level Indianapolis Center
Tue 04:44:39 PM 40.1489 -83.1336 54° Northeast 186 214 9,000  Level Indianapolis Center
Tue 04:45:41 PM 40.1847 -83.0683 54° Northeast 187 215 9,000  Level Indianapolis Center
Tue 04:46:43 PM 40.2147 -83.0122 55° Northeast 186 214 9,000  Level Indianapolis Center
Tue 04:47:45 PM 40.2458 -82.9567 54° Northeast 187 215 9,000  Level Indianapolis Center
Tue 04:48:47 PM 40.2747 -82.9011 56° Northeast 184 212 9,000  Level Indianapolis Center
Tue 04:49:49 PM 40.3053 -82.8456 54° Northeast 185 213 9,000  Level Indianapolis Center
Tue 04:50:51 PM 40.3383 -82.7881 53° Northeast 187 215 9,000  Level Indianapolis Center
Tue 04:51:53 PM 40.3681 -82.7333 55° Northeast 183 211 9,000  Level Indianapolis Center
Tue 04:52:55 PM 40.3994 -82.6761 54° Northeast 191 220 9,000  Level Indianapolis Center
Tue 04:53:57 PM 40.4289 -82.6200 55° Northeast 187 215 9,000  Level Indianapolis Center
Tue 04:54:59 PM 40.4628 -82.5519 57° Northeast 189 217 9,000  Level Indianapolis Center
Tue 04:56:01 PM 40.4939 -82.4939 55° Northeast 191 220 9,000  Level Indianapolis Center
Tue 04:57:03 PM 40.5247 -82.4369 55° Northeast 190 219 9,000  Level Indianapolis Center
Tue 04:58:05 PM 40.5547 -82.3803 55° Northeast 188 216 9,000  Level Indianapolis Center
Tue 04:59:07 PM 40.5850 -82.3214 56° Northeast 192 221 9,000  Level Indianapolis Center
Tue 05:00:09 PM 40.6161 -82.2658 54° Northeast 188 216 9,000  Level Indianapolis Center
Tue 05:00:45 PM 40.6347 -82.2247 59° Northeast 189 217 9,000  Level Cleveland Center
Tue 05:01:45 PM 40.6647 -82.1681 55° Northeast 189 217 9,000  Level Cleveland Center
Tue 05:02:45 PM 40.6969 -82.1139 52° Northeast 189 217 9,000  Level Cleveland Center
Tue 05:03:45 PM 40.7267 -82.0572 55° Northeast 189 217 9,000 -250 Level Cleveland Center
Tue 05:04:45 PM 40.7567 -82.0003 55° Northeast 189 217 8,500 -950 Descending Cleveland Center
Tue 05:05:45 PM 40.7908 -81.9353 55° Northeast 206 237 7,100 -1,550 Descending Cleveland Center
Tue 05:06:45 PM 40.8269 -81.8672 55° Northeast 216 249 5,400 -950 Descending Cleveland Center
Tue 05:07:45 PM 40.8547 -81.8075 58° Northeast 216 249 5,200 -200 Descending Cleveland Center
Tue 05:10:00 PM 40.8869 -81.7385 52° Northeast  Level FlightAware Approximate
Tue 05:17:00 PM 41.0333 -81.4667 37° Northeast  Level FlightAware Approximate
Tue 05:18:00 PM 41.0375 -81.4669 37° Northeast  Level Estimated
Tue 05:19:00 PM 41.0333 -81.4667 37° Northeast  Level FlightAware Approximate
Tue 05:20:00 PM 41.0375 -81.4669 37° Northeast  Level Estimated
Tue 05:21:00 PM 41.0333 -81.4667 37° Northeast  Level FlightAware Approximate
Tue 05:22:00 PM 41.0375 -81.4669 37° Northeast  Level Estimated
Tue 05:23:00 PM 41.0333 -81.4667 37° Northeast  Level FlightAware Approximate
Tue 05:24:00 PM 41.0375 -81.4669 37° Northeast  Level Estimated

Login

Don't have an account? Register now (free) for customized features, flight alerts, and more!